createdAt,value
2019-05-30T00:09:23.556Z,7.33
2019-05-30T00:19:25.166Z,7.67
2019-05-30T00:29:26.695Z,7.73
2019-05-30T00:39:28.266Z,8.04
2019-05-30T00:49:29.847Z,8.22
2019-05-30T00:59:31.392Z,8.31
2019-05-30T01:09:32.810Z,8.43
2019-05-30T01:19:34.268Z,8.54
2019-05-30T01:29:35.684Z,8.52
2019-05-30T01:39:37.111Z,8.46
2019-05-30T01:49:38.563Z,8.27
2019-05-30T01:59:40.006Z,8.07
2019-05-30T02:09:41.455Z,8.25
2019-05-30T02:19:43.027Z,8.20
2019-05-30T02:29:44.450Z,8.24
2019-05-30T02:39:45.898Z,7.49
2019-05-30T02:49:47.376Z,7.40
2019-05-30T02:59:48.870Z,6.79
2019-05-30T03:09:50.600Z,6.66
2019-05-30T03:19:52.151Z,6.63
2019-05-30T03:29:53.571Z,6.17
2019-05-30T03:39:55.009Z,6.29
2019-05-30T03:49:59.663Z,5.86
2019-05-30T04:00:14.522Z,5.84
2019-05-30T04:10:20.524Z,5.45
2019-05-30T04:20:23.165Z,5.65
2019-05-30T04:30:24.804Z,5.93
2019-05-30T04:40:26.322Z,6.17
2019-05-30T04:50:27.814Z,6.45
2019-05-30T05:00:29.256Z,6.59
2019-05-30T05:10:30.780Z,7.01
2019-05-30T05:20:35.945Z,7.60
2019-05-30T05:30:35.785Z,7.42
2019-05-30T05:40:37.231Z,7.92
2019-05-30T05:50:38.713Z,9.19
2019-05-30T06:00:40.274Z,12.50
2019-05-30T06:10:41.989Z,14.23
2019-05-30T06:20:43.449Z,18.79
2019-05-30T06:30:44.911Z,23.28
2019-05-30T06:40:46.354Z,26.04
2019-05-30T06:50:47.870Z,26.74
2019-05-30T07:00:49.467Z,32.67
2019-05-30T07:10:50.933Z,37.45
2019-05-30T07:20:52.365Z,38.21
2019-05-30T07:30:53.832Z,37.51
2019-05-30T07:40:55.278Z,40.67
2019-05-30T07:50:56.839Z,41.13
2019-05-30T08:00:58.317Z,39.99
2019-05-30T08:11:08.914Z,41.50
2019-05-30T08:21:03.323Z,42.51
2019-05-30T08:31:04.764Z,44.12
2019-05-30T08:41:06.331Z,47.71
2019-05-30T08:51:07.817Z,46.36
2019-05-30T09:01:09.429Z,49.86
2019-05-30T09:11:12.763Z,46.97
2019-05-30T09:21:14.436Z,44.12
2019-05-30T09:31:15.983Z,35.85
2019-05-30T09:41:17.758Z,27.28
2019-05-30T09:51:19.535Z,22.64
2019-05-30T10:01:20.977Z,17.64
2019-05-30T10:11:22.403Z,18.99
2019-05-30T10:21:23.849Z,40.17
2019-05-30T10:31:25.318Z,36.04
2019-05-30T10:41:26.807Z,26.75
2019-05-30T10:51:28.256Z,25.77
2019-05-30T11:01:30.075Z,39.98
2019-05-30T11:11:31.648Z,41.81
2019-05-30T11:21:33.083Z,36.66
2019-05-30T11:31:34.523Z,25.77
2019-05-30T11:41:36.063Z,25.73
2019-05-30T11:51:37.504Z,24.69
2019-05-30T12:01:38.980Z,24.62
2019-05-30T12:11:40.534Z,26.17
2019-05-30T12:21:41.996Z,25.75
2019-05-30T12:31:43.545Z,24.85
2019-05-30T12:41:44.971Z,21.30
2019-05-30T12:51:46.425Z,20.27
2019-05-30T13:01:47.864Z,20.71
2019-05-30T13:11:49.328Z,21.70
2019-05-30T13:21:53.746Z,20.62
2019-05-30T13:31:54.522Z,20.95
2019-05-30T13:41:57.252Z,20.91
2019-05-30T13:51:59.048Z,21.34
2019-05-30T14:02:01.791Z,21.46
2019-05-30T14:12:04.487Z,22.59
2019-05-30T14:22:07.246Z,23.28
2019-05-30T14:32:09.975Z,20.52
2019-05-30T14:42:11.531Z,21.55
2019-05-30T14:52:13.404Z,22.22
2019-05-30T15:02:15.089Z,22.15
2019-05-30T15:12:17.642Z,24.00
2019-05-30T15:22:19.089Z,24.50
2019-05-30T15:32:21.600Z,24.42
2019-05-30T15:42:23.270Z,23.88
2019-05-30T15:52:24.726Z,21.54
2019-05-30T16:02:26.316Z,21.74
2019-05-30T16:12:27.757Z,21.58
2019-05-30T16:22:29.362Z,20.39
2019-05-30T16:32:31.409Z,21.76
2019-05-30T16:42:32.856Z,20.89
2019-05-30T16:52:34.733Z,19.55
2019-05-30T17:02:36.188Z,19.89
2019-05-30T17:12:37.710Z,20.57
2019-05-30T17:22:39.131Z,19.81
2019-05-30T17:32:42.515Z,19.05
2019-05-30T17:42:45.017Z,18.97
2019-05-30T17:52:46.448Z,18.73
2019-05-30T18:02:48.798Z,18.94
2019-05-30T18:12:50.286Z,18.82
2019-05-30T18:22:51.905Z,18.10
2019-05-30T18:32:53.345Z,18.22
2019-05-30T18:42:54.810Z,17.40
2019-05-30T18:52:56.236Z,17.27
2019-05-30T19:02:57.998Z,16.81
2019-05-30T19:12:59.654Z,16.75
2019-05-30T19:23:01.150Z,16.33
2019-05-30T19:33:03.907Z,16.06
2019-05-30T19:43:05.355Z,15.97
2019-05-30T19:53:06.973Z,15.61
2019-05-30T20:03:08.624Z,15.49
2019-05-30T20:13:10.084Z,15.13
2019-05-30T20:23:11.623Z,15.19
2019-05-30T20:33:13.084Z,15.20
2019-05-30T20:43:14.555Z,15.01
2019-05-30T20:53:16.092Z,14.81
2019-05-30T21:03:17.658Z,14.51
2019-05-30T21:13:19.363Z,14.19
2019-05-30T21:23:20.826Z,14.24
2019-05-30T21:33:22.453Z,14.34
2019-05-30T21:43:23.922Z,14.22
2019-05-30T21:53:25.382Z,13.92
2019-05-30T22:03:27.038Z,13.88
2019-05-30T22:13:28.475Z,13.28
2019-05-30T22:23:29.918Z,13.28
2019-05-30T22:33:31.395Z,13.24
2019-05-30T22:43:34.544Z,13.26
2019-05-30T22:53:36.114Z,13.30
2019-05-30T23:03:37.528Z,13.54
2019-05-30T23:13:40.791Z,13.26
2019-05-30T23:23:42.416Z,13.13
2019-05-30T23:33:43.920Z,13.12
2019-05-30T23:43:56.641Z,13.16
2019-05-30T23:53:50.030Z,13.41
